Terminal Aerodrome Forecast
Issued by NWS

Home | Current Version | Previous Version | Text Only | Print | Product List | Glossary On
Versions: 1 2 3 4 5 6 7 8 9 10 11 12 13
000
FTUS45 KGGW 260100 AAA
TAFSDY
TAF AMD
KSDY 260142Z 2602/2624 VRB06KT P6SM VCTS BKN060CB
      TEMPO 2602/2603 VRB10G20KT P6SM -TSRA BKN040CB
     FM260300 VRB05KT P6SM SCT070
     FM260600 VRB05KT P6SM FEW200
     FM261800 18006KT P6SM SCT080
      AMD LTD TO CLD VIS AND WIND=

USA.gov is the U.S. government's official web portal to all federal, state and local government web resources and services.